North Judson, Indiana
Current Conditions -  °F | °C
As of 10:15 AM on Thursday 18 Dec 2014 (Local Time) from KOXI Reporting Station
Overcast Overcast  
Wind Chill: 17°   Ceiling: 2300
Heat Index: 26°   Visibility: 10mi
Dew Point: 17°   Wind: 9mph
Humidity: 67%   Direction: 240°WSW
Pressure: 30.3"   Gusts: NA
Location:  41.22°N, 86.78°W
Report Text: KOXI 181615Z AUTO 24008KT 10SM OVC023 M03/M08 A3030 RMK AO1 T10321085
Loading
Personal Weather Stations






























Interactive Weather Map New forecast layout! Learn more

10-Day Weather Forecast

Advertisements
Track Severe Weather on mobile